EGXV

RAF Leconfield Airport

Leconfield, United Kingdom
METAR EGXV 151950Z AUTO 13004KT 9999 FEW070/// 22/13 Q1012
Observed Flight Rules
Jul-15 @ 19:50 UTC (an hour ago) Visual Flight Rules
Wind Visibility Clouds
130° at 4 knots 10,000+ meters
  • Few at 7,000' AGL
Temperatures Readings
Current 22°C / 72°F
Dewpoint 13°C / 55°F
Humidity 57%
Altimeter 29.88" Hg
Pressure 1012 hPa
Elevation 6
METAR EGXV 151950Z AUTO 13004KT 9999 FEW070/// 22/13 Q1012
Observed Flight Rules
Jul-15 @ 19:50 UTC
(an hour ago)
VFR
Wind Visibility
130° at 4 knots 10,000+ meters
Clouds
  • Few at 7,000' AGL
Temperature Dewpoint
22°C / 72°F 13°C / 55°F
Humidity Altimeter Pressure
57% 29.88" Hg 1012 hPa